A80 TRACON Summary / KATL TAF
ATL TRACON Summary:
Isolated showers south and west of ATL will move north at 10-15kts diminish by 01z. Expect VFR conditions overnight under clearing skies. Surface winds will be south to southwest at 3-8kts. Flight hazards in the TRACON airspace outside convection: None expected.

Updated:7/26/2016 8:43 PM
ATL Terminal Aerodrome Forecast:

FTUS80 KATL 270748 AAA
KATL 270745Z 2708/2812 22004KT P6SM SCT015
      TEMPO 2709/2713 P6SM BKN008
     FM271500 25006KT P6SM SCT040
     FM271800 23008KT P6SM SCT060
     FM280100 25005KT P6SM SCT250
ATL TRACON Area Remark:
ISOLATED TS POSSIBLE NW/W/SW/S until 02z.
Convective Gate Forecast / Icing Gate Forecast / Vertical Wind Profile (click on image to enlarge)
Convective Gate Forecast
Icing Gate Forecast
table with gate forecasts (convective and CCFP) used April - November while icing gate forecasts are issued
AIRMETs & SIGMETS/ Southeast Radar loop / Satellite Image (click on image to enlarge)

Southeast Radar Loop

 



USA.gov is the U.S. government's official web portal to all federal, state and local government web resources and services.